createdAt,value
2022-09-12T00:01:40.933Z,10.18
2022-09-12T00:04:07.781Z,12.57
2022-09-12T00:06:36.691Z,12.32
2022-09-12T00:09:12.559Z,11.77
2022-09-12T00:11:43.294Z,10.50
2022-09-12T00:14:12.151Z,15.20
2022-09-12T00:16:40.339Z,10.95
2022-09-12T00:19:07.926Z,10.80
2022-09-12T00:21:36.748Z,11.40
2022-09-12T00:24:04.489Z,9.48
2022-09-12T00:26:31.537Z,11.02
2022-09-12T00:28:58.517Z,13.15
2022-09-12T00:31:26.462Z,10.35
2022-09-12T00:33:56.361Z,11.85
2022-09-12T00:36:25.344Z,10.82
2022-09-12T00:38:53.457Z,10.85
2022-09-12T00:41:24.081Z,10.52
2022-09-12T00:43:53.925Z,12.57
2022-09-12T00:46:32.521Z,11.40
2022-09-12T00:49:23.161Z,12.10
2022-09-12T00:51:59.671Z,11.02
2022-09-12T00:54:30.607Z,11.20
2022-09-12T00:57:02.626Z,10.07
2022-09-12T00:59:38.478Z,13.27
2022-09-12T01:02:06.029Z,11.65
2022-09-12T01:04:32.879Z,11.07
2022-09-12T01:06:59.758Z,12.93
2022-09-12T01:09:26.726Z,11.38
2022-09-12T01:11:53.747Z,15.00
2022-09-12T01:14:20.936Z,16.52
2022-09-12T01:16:49.788Z,11.43
2022-09-12T01:19:20.168Z,11.27
2022-09-12T01:22:05.466Z,11.00
2022-09-12T01:25:09.700Z,11.18
2022-09-12T01:28:10.347Z,10.20
2022-09-12T01:31:00.303Z,12.18
2022-09-12T01:33:55.810Z,11.98
2022-09-12T01:36:34.842Z,12.88
2022-09-12T01:39:03.465Z,10.55
2022-09-12T01:41:43.539Z,10.82
2022-09-12T01:44:42.377Z,9.90
2022-09-12T01:47:16.370Z,10.35
2022-09-12T01:52:39.644Z,13.05
2022-09-12T01:55:32.044Z,12.07
2022-09-12T01:58:06.354Z,11.15
2022-09-12T02:00:37.758Z,13.85
2022-09-12T02:03:27.709Z,12.93
2022-09-12T02:06:08.250Z,10.63
2022-09-12T02:08:47.368Z,14.23
2022-09-12T02:11:14.328Z,14.07
2022-09-12T02:13:46.612Z,14.13
2022-09-12T02:16:28.921Z,13.55
2022-09-12T02:19:05.729Z,13.80
2022-09-12T02:21:34.962Z,12.10
2022-09-12T02:24:05.158Z,12.30
2022-09-12T02:26:36.441Z,13.63
2022-09-12T02:29:04.331Z,12.68
2022-09-12T02:31:36.510Z,13.10
2022-09-12T02:34:24.937Z,13.25
2022-09-12T02:36:51.580Z,12.65
2022-09-12T02:39:21.322Z,12.20
2022-09-12T02:41:51.673Z,16.65
2022-09-12T02:44:18.968Z,12.93
2022-09-12T02:46:50.212Z,12.35
2022-09-12T02:49:17.900Z,12.18
2022-09-12T02:51:46.535Z,15.90
2022-09-12T02:54:15.315Z,12.23
2022-09-12T02:56:43.802Z,14.40
2022-09-12T02:59:14.302Z,15.45
2022-09-12T03:01:49.792Z,14.18
2022-09-12T03:04:27.408Z,12.85
2022-09-12T03:07:12.589Z,14.55
2022-09-12T03:09:45.725Z,15.63
2022-09-12T03:12:53.853Z,11.37
2022-09-12T03:15:32.508Z,12.15
2022-09-12T03:18:24.388Z,12.70
2022-09-12T03:20:57.120Z,14.05
2022-09-12T03:23:51.787Z,10.32
2022-09-12T03:28:52.557Z,11.30
2022-09-12T03:31:19.867Z,12.65
2022-09-12T03:33:46.978Z,13.65
2022-09-12T03:36:19.773Z,13.68
2022-09-12T03:38:46.623Z,16.40
2022-09-12T03:41:13.348Z,13.85
2022-09-12T03:43:40.810Z,15.32
2022-09-12T03:46:07.655Z,14.90
2022-09-12T03:48:34.769Z,17.75
2022-09-12T03:51:06.033Z,11.23
2022-09-12T03:53:33.536Z,13.40
2022-09-12T03:56:00.775Z,16.60
2022-09-12T03:58:31.050Z,17.00
2022-09-12T04:00:58.044Z,11.60
2022-09-12T04:03:24.750Z,15.85
2022-09-12T04:05:51.440Z,10.98
2022-09-12T04:08:18.102Z,14.65
2022-09-12T04:10:44.802Z,15.38
2022-09-12T04:13:11.677Z,10.70
2022-09-12T04:15:38.585Z,16.08
2022-09-12T04:18:06.208Z,16.30
2022-09-12T04:20:33.321Z,9.52
2022-09-12T04:23:01.433Z,14.93
2022-09-12T04:25:28.387Z,11.93
2022-09-12T04:27:55.025Z,11.35
2022-09-12T04:30:21.807Z,14.57
2022-09-12T04:32:48.508Z,15.98
2022-09-12T04:35:15.343Z,11.18
2022-09-12T04:37:42.124Z,9.85
2022-09-12T04:40:09.441Z,11.43
2022-09-12T04:42:36.114Z,14.98
2022-09-12T04:45:03.619Z,13.43
2022-09-12T04:47:30.296Z,14.75
2022-09-12T04:49:57.201Z,11.63
2022-09-12T04:52:24.000Z,13.88
2022-09-12T04:54:50.660Z,15.55
2022-09-12T04:57:17.317Z,14.48
2022-09-12T04:59:44.069Z,12.18
2022-09-12T05:02:10.796Z,12.27
2022-09-12T05:04:37.498Z,10.43
2022-09-12T05:07:04.244Z,8.05
2022-09-12T05:09:31.082Z,12.85
2022-09-12T05:12:05.882Z,8.10
2022-09-12T05:14:33.779Z,12.93
2022-09-12T05:17:01.857Z,9.98
2022-09-12T05:19:30.308Z,12.27
2022-09-12T05:21:57.324Z,16.98
2022-09-12T05:24:24.842Z,12.63
2022-09-12T05:26:51.609Z,11.40
2022-09-12T05:29:18.960Z,13.02
2022-09-12T05:31:45.869Z,14.23
2022-09-12T05:34:12.826Z,13.05
2022-09-12T05:36:39.555Z,12.57
2022-09-12T05:39:06.458Z,14.02
2022-09-12T05:41:34.011Z,11.07
2022-09-12T05:44:03.052Z,14.25
2022-09-12T05:46:32.189Z,15.85
2022-09-12T05:49:04.345Z,11.85
2022-09-12T05:51:34.336Z,10.68
2022-09-12T05:54:03.319Z,12.45
2022-09-12T05:56:33.279Z,10.80
2022-09-12T05:59:02.115Z,12.43
2022-09-12T06:01:30.417Z,12.82
2022-09-12T06:04:00.659Z,12.52
2022-09-12T06:06:29.041Z,10.35
2022-09-12T06:09:01.258Z,10.85
2022-09-12T06:11:31.072Z,12.10
2022-09-12T06:13:59.157Z,12.02
2022-09-12T06:16:28.924Z,12.75
2022-09-12T06:18:57.833Z,10.10
2022-09-12T06:21:26.543Z,12.23
2022-09-12T06:23:56.084Z,9.68
2022-09-12T06:26:25.737Z,10.50
2022-09-12T06:28:55.026Z,9.85
2022-09-12T06:31:25.250Z,7.88
2022-09-12T06:33:53.430Z,7.90
2022-09-12T06:36:26.087Z,10.13
2022-09-12T06:38:58.012Z,7.97
2022-09-12T06:41:25.622Z,9.77
2022-09-12T06:43:53.121Z,9.52
2022-09-12T06:46:20.423Z,6.88
2022-09-12T06:48:47.354Z,7.22
2022-09-12T06:51:16.400Z,7.88
2022-09-12T06:53:44.586Z,7.32
2022-09-12T06:56:13.684Z,8.18
2022-09-12T06:58:41.426Z,8.35
2022-09-12T07:01:21.779Z,8.68
2022-09-12T07:03:51.065Z,9.15
2022-09-12T07:06:20.226Z,7.60
2022-09-12T07:08:47.223Z,8.75
2022-09-12T07:11:18.243Z,6.03
2022-09-12T07:13:47.157Z,7.10
2022-09-12T07:16:19.190Z,6.88
2022-09-12T07:18:54.389Z,5.70
2022-09-12T07:21:21.318Z,9.25
2022-09-12T07:23:49.207Z,7.70
2022-09-12T07:26:16.622Z,6.38
2022-09-12T07:28:44.095Z,7.40
2022-09-12T07:31:16.165Z,6.15
2022-09-12T07:33:43.386Z,6.75
2022-09-12T07:36:18.716Z,4.03
2022-09-12T07:38:46.563Z,4.85
2022-09-12T07:41:21.393Z,5.85
2022-09-12T07:43:51.222Z,4.40
2022-09-12T07:46:18.356Z,5.53
2022-09-12T07:48:48.972Z,5.82
2022-09-12T07:51:15.689Z,5.57
2022-09-12T07:53:43.385Z,6.53
2022-09-12T07:56:11.379Z,4.65
2022-09-12T07:58:40.450Z,4.55
2022-09-12T08:01:13.143Z,4.53
2022-09-12T08:03:41.265Z,4.78
2022-09-12T08:06:14.252Z,6.45
2022-09-12T08:08:41.944Z,6.13
2022-09-12T08:11:13.811Z,6.53
2022-09-12T08:13:42.369Z,4.28
2022-09-12T08:16:13.910Z,5.03
2022-09-12T08:18:41.140Z,5.45
2022-09-12T08:21:14.457Z,5.30
2022-09-12T08:23:42.575Z,5.45
2022-09-12T08:26:10.474Z,7.90
2022-09-12T08:28:40.046Z,4.55
2022-09-12T08:31:08.882Z,6.22
2022-09-12T08:33:35.794Z,6.07
2022-09-12T08:36:05.397Z,3.47
2022-09-12T08:38:32.960Z,4.43
2022-09-12T08:41:11.359Z,3.03
2022-09-12T08:43:45.586Z,3.45
2022-09-12T08:46:23.245Z,3.50
2022-09-12T08:48:51.845Z,3.38
2022-09-12T08:51:20.461Z,1.67
2022-09-12T08:53:50.641Z,1.77
2022-09-12T08:56:17.440Z,2.17
2022-09-12T08:58:46.067Z,2.17
2022-09-12T09:01:31.033Z,3.20
2022-09-12T09:04:28.837Z,2.67
2022-09-12T09:07:16.658Z,3.30
2022-09-12T09:10:02.788Z,2.08
2022-09-12T09:12:38.795Z,4.55
2022-09-12T09:15:21.974Z,3.47
2022-09-12T09:18:04.121Z,3.13
2022-09-12T09:20:36.286Z,3.47
2022-09-12T09:23:16.470Z,3.70
2022-09-12T09:25:54.306Z,3.55
2022-09-12T09:28:32.311Z,3.70
2022-09-12T09:30:59.284Z,2.17
2022-09-12T09:33:34.704Z,4.13
2022-09-12T09:36:25.206Z,2.72
2022-09-12T09:39:09.068Z,3.25
2022-09-12T09:44:21.685Z,4.35
2022-09-12T09:46:54.159Z,3.17
2022-09-12T09:49:21.791Z,2.10
2022-09-12T09:51:48.924Z,2.20
2022-09-12T09:54:25.467Z,2.10
2022-09-12T09:56:52.368Z,3.25
2022-09-12T09:59:29.338Z,1.92
2022-09-12T10:01:58.776Z,2.03
2022-09-12T10:04:28.735Z,1.75
2022-09-12T10:07:05.902Z,2.47
2022-09-12T10:09:34.791Z,1.70
2022-09-12T10:12:21.816Z,1.60
2022-09-12T10:14:58.725Z,1.73
2022-09-12T10:17:34.268Z,1.30
2022-09-12T10:20:20.507Z,1.35
2022-09-12T10:22:48.902Z,1.35
2022-09-12T10:25:18.589Z,2.55
2022-09-12T10:27:52.090Z,2.25
2022-09-12T10:30:21.720Z,1.58
2022-09-12T10:32:50.811Z,2.00
2022-09-12T10:35:21.736Z,1.40
2022-09-12T10:37:56.929Z,1.65
2022-09-12T10:40:29.607Z,1.30
2022-09-12T10:43:02.581Z,1.20
2022-09-12T10:45:38.794Z,1.55
2022-09-12T10:48:22.777Z,1.58
2022-09-12T10:50:51.055Z,1.33
2022-09-12T10:53:22.527Z,1.05
2022-09-12T10:56:04.612Z,0.80
2022-09-12T10:58:50.159Z,1.40
2022-09-12T11:01:30.825Z,1.08
2022-09-12T11:04:20.542Z,1.00
2022-09-12T11:07:02.211Z,1.10
2022-09-12T11:09:48.496Z,1.67
2022-09-12T11:12:40.817Z,2.25
2022-09-12T11:15:41.451Z,0.85
2022-09-12T11:18:35.464Z,1.20
2022-09-12T11:21:28.283Z,0.90
2022-09-12T11:24:00.516Z,1.02
2022-09-12T11:27:04.030Z,1.47
2022-09-12T11:29:57.632Z,1.08
2022-09-12T11:35:20.127Z,2.42
2022-09-12T11:38:00.348Z,1.05
2022-09-12T11:40:42.821Z,1.10
2022-09-12T11:43:29.672Z,1.15
2022-09-12T11:46:01.415Z,1.23
2022-09-12T11:48:38.270Z,1.30
2022-09-12T11:51:10.857Z,1.05
2022-09-12T11:53:40.741Z,1.20
2022-09-12T11:56:17.310Z,1.27
2022-09-12T11:58:57.286Z,1.30
2022-09-12T12:01:30.127Z,3.58
2022-09-12T12:03:58.189Z,0.75
2022-09-12T12:06:32.041Z,2.35
2022-09-12T12:08:59.044Z,0.70
2022-09-12T12:11:41.236Z,0.95
2022-09-12T12:14:15.477Z,1.48
2022-09-12T12:16:42.789Z,0.98
2022-09-12T12:19:15.540Z,0.70
2022-09-12T12:21:47.288Z,0.70
2022-09-12T12:24:26.178Z,0.80
2022-09-12T12:26:57.445Z,0.98
2022-09-12T12:29:24.067Z,0.80
2022-09-12T12:31:59.560Z,1.10
2022-09-12T12:34:55.305Z,1.10
2022-09-12T12:37:22.150Z,1.15
2022-09-12T12:39:50.361Z,1.55
2022-09-12T12:42:35.651Z,1.13
2022-09-12T12:45:22.704Z,0.85
2022-09-12T12:47:59.214Z,0.80
2022-09-12T12:50:29.247Z,1.10
2022-09-12T12:53:04.601Z,1.25
2022-09-12T12:55:38.644Z,0.90
2022-09-12T12:58:07.521Z,1.52
2022-09-12T13:00:39.704Z,1.10
2022-09-12T13:03:06.709Z,1.08
2022-09-12T13:06:07.611Z,3.65
2022-09-12T13:08:38.923Z,0.95
2022-09-12T13:11:10.969Z,0.93
2022-09-12T13:13:40.484Z,0.80
2022-09-12T13:16:10.356Z,1.10
2022-09-12T13:18:46.111Z,1.15
2022-09-12T13:21:18.925Z,1.58
2022-09-12T13:24:00.659Z,1.52
2022-09-12T13:26:27.681Z,0.85
2022-09-12T13:29:20.703Z,2.47
2022-09-12T13:31:52.491Z,1.05
2022-09-12T13:34:26.366Z,1.85
2022-09-12T13:37:40.534Z,2.92
2022-09-12T13:40:41.096Z,1.27
2022-09-12T13:43:23.210Z,1.42
2022-09-12T13:45:50.698Z,2.20
2022-09-12T13:48:21.934Z,1.65
2022-09-12T13:50:57.739Z,1.50
2022-09-12T13:53:27.631Z,1.65
2022-09-12T13:55:58.433Z,1.15
2022-09-12T13:58:30.856Z,0.57
2022-09-12T14:01:01.955Z,0.77
2022-09-12T14:03:56.768Z,1.25
2022-09-12T14:06:27.565Z,0.60
2022-09-12T14:09:01.467Z,0.80
2022-09-12T14:11:30.924Z,0.70
2022-09-12T14:13:58.279Z,0.70
2022-09-12T14:16:29.004Z,1.88
2022-09-12T14:18:57.078Z,0.90
2022-09-12T14:21:36.359Z,1.00
2022-09-12T14:24:06.180Z,0.68
2022-09-12T14:26:37.548Z,0.57
2022-09-12T14:29:08.585Z,1.42
2022-09-12T14:31:37.826Z,1.30
2022-09-12T14:34:12.471Z,0.80
2022-09-12T14:36:50.743Z,0.95
2022-09-12T14:39:30.745Z,0.93
2022-09-12T14:42:07.197Z,0.80
2022-09-12T14:44:35.639Z,1.25
2022-09-12T14:47:13.733Z,1.02
2022-09-12T14:49:41.252Z,3.22
2022-09-12T14:52:29.817Z,1.10
2022-09-12T14:54:59.331Z,0.55
2022-09-12T14:57:33.782Z,0.70
2022-09-12T15:00:17.899Z,0.98
2022-09-12T15:02:44.868Z,0.85
2022-09-12T15:05:11.498Z,1.70
2022-09-12T15:07:59.946Z,1.20
2022-09-12T15:10:33.639Z,0.80
2022-09-12T15:13:25.782Z,1.20
2022-09-12T15:15:57.560Z,1.00
2022-09-12T15:18:27.316Z,1.27
2022-09-12T15:20:57.783Z,1.17
2022-09-12T15:23:43.338Z,0.88
2022-09-12T15:26:13.127Z,1.13
2022-09-12T15:28:39.921Z,1.27
2022-09-12T15:31:13.514Z,0.80
2022-09-12T15:33:40.373Z,0.70
2022-09-12T15:36:15.679Z,1.02
2022-09-12T15:38:43.771Z,2.25
2022-09-12T15:41:19.478Z,2.67
2022-09-12T15:43:47.635Z,1.10
2022-09-12T15:46:15.843Z,3.15
2022-09-12T15:48:43.440Z,1.20
2022-09-12T15:51:15.952Z,1.40
2022-09-12T15:53:43.443Z,2.97
2022-09-12T15:56:10.297Z,1.10
2022-09-12T15:58:49.743Z,1.20
2022-09-12T16:01:24.427Z,1.05
2022-09-12T16:03:51.236Z,1.30
2022-09-12T16:06:17.970Z,1.45
2022-09-12T16:08:44.724Z,1.25
2022-09-12T16:11:18.659Z,2.30
2022-09-12T16:13:45.541Z,2.22
2022-09-12T16:16:12.279Z,1.45
2022-09-12T16:18:41.968Z,1.63
2022-09-12T16:21:12.755Z,1.50
2022-09-12T16:23:43.486Z,2.37
2022-09-12T16:26:10.221Z,4.28
2022-09-12T16:28:37.142Z,2.30
2022-09-12T16:31:06.910Z,1.27
2022-09-12T16:33:34.537Z,2.35
2022-09-12T16:36:07.331Z,2.58
2022-09-12T16:38:34.659Z,1.77
2022-09-12T16:41:03.553Z,1.63
2022-09-12T16:43:31.803Z,1.50
2022-09-12T16:46:07.173Z,1.30
2022-09-12T16:48:34.646Z,1.67
2022-09-12T16:51:04.984Z,1.52
2022-09-12T16:53:37.972Z,1.20
2022-09-12T16:56:06.175Z,1.63
2022-09-12T16:58:37.470Z,1.60
2022-09-12T17:01:10.763Z,1.58
2022-09-12T17:03:37.614Z,1.83
2022-09-12T17:06:22.960Z,1.80
2022-09-12T17:08:52.185Z,1.10
2022-09-12T17:11:20.108Z,1.48
2022-09-12T17:14:07.865Z,1.10
2022-09-12T17:16:37.501Z,1.30
2022-09-12T17:19:05.024Z,1.55
2022-09-12T17:21:31.847Z,1.88
2022-09-12T17:23:59.418Z,1.33
2022-09-12T17:26:26.959Z,1.20
2022-09-12T17:28:53.821Z,2.10
2022-09-12T17:31:20.849Z,1.75
2022-09-12T17:33:47.868Z,1.40
2022-09-12T17:36:16.851Z,1.67
2022-09-12T17:38:45.763Z,1.35
2022-09-12T17:41:19.478Z,1.85
2022-09-12T17:43:50.815Z,1.80
2022-09-12T17:46:21.415Z,2.45
2022-09-12T17:48:53.140Z,1.45
2022-09-12T17:51:21.669Z,2.17
2022-09-12T17:53:48.794Z,1.27
2022-09-12T17:56:15.816Z,1.52
2022-09-12T17:58:42.635Z,1.30
2022-09-12T18:01:34.233Z,2.33
2022-09-12T18:04:01.489Z,2.92
2022-09-12T18:06:29.362Z,1.30
2022-09-12T18:08:58.802Z,1.17
2022-09-12T18:11:25.476Z,4.15
2022-09-12T18:13:52.125Z,2.53
2022-09-12T18:16:18.967Z,1.55
2022-09-12T18:18:45.758Z,2.67
2022-09-12T18:21:12.499Z,1.50
2022-09-12T18:23:39.344Z,1.77
2022-09-12T18:26:08.804Z,1.38
2022-09-12T18:28:37.799Z,1.33
2022-09-12T18:31:05.529Z,2.20
2022-09-12T18:33:34.048Z,1.40
2022-09-12T18:36:08.362Z,3.85
2022-09-12T18:38:35.724Z,4.38
2022-09-12T18:41:11.105Z,1.65
2022-09-12T18:43:37.942Z,1.30
2022-09-12T18:46:09.489Z,1.52
2022-09-12T18:48:38.507Z,1.80
2022-09-12T18:51:20.315Z,1.40
2022-09-12T18:53:56.484Z,1.60
2022-09-12T18:56:25.072Z,1.95
2022-09-12T18:58:54.949Z,1.48
2022-09-12T19:01:24.649Z,1.55
2022-09-12T19:03:52.278Z,1.23
2022-09-12T19:06:24.278Z,1.50
2022-09-12T19:08:52.223Z,1.60
2022-09-12T19:11:19.679Z,1.40
2022-09-12T19:13:48.592Z,2.63
2022-09-12T19:16:22.176Z,1.65
2022-09-12T19:18:50.062Z,1.40
2022-09-12T19:21:19.993Z,1.45
2022-09-12T19:23:46.941Z,1.67
2022-09-12T19:26:16.163Z,1.50
2022-09-12T19:28:43.526Z,1.48
2022-09-12T19:31:13.844Z,1.77
2022-09-12T19:33:41.704Z,2.05
2022-09-12T19:36:27.690Z,1.00
2022-09-12T19:39:01.883Z,1.70
2022-09-12T19:41:29.015Z,1.42
2022-09-12T19:43:56.867Z,1.48
2022-09-12T19:46:25.734Z,1.50
2022-09-12T19:48:53.664Z,2.75
2022-09-12T19:51:22.110Z,1.85
2022-09-12T19:53:50.370Z,4.07
2022-09-12T19:56:17.501Z,1.50
2022-09-12T19:58:46.659Z,1.40
2022-09-12T20:01:16.125Z,1.55
2022-09-12T20:03:43.579Z,1.52
2022-09-12T20:06:13.393Z,2.05
2022-09-12T20:08:42.242Z,1.65
2022-09-12T20:11:14.750Z,2.60
2022-09-12T20:13:42.071Z,1.45
2022-09-12T20:16:11.818Z,1.50
2022-09-12T20:18:38.696Z,1.70
2022-09-12T20:21:13.540Z,1.50
2022-09-12T20:23:41.378Z,2.10
2022-09-12T20:26:09.381Z,2.28
2022-09-12T20:28:37.572Z,1.95
2022-09-12T20:31:07.108Z,1.50
2022-09-12T20:33:34.519Z,1.77
2022-09-12T20:36:13.587Z,1.50
2022-09-12T20:38:41.097Z,2.45
2022-09-12T20:41:09.977Z,1.40
2022-09-12T20:43:38.705Z,2.45
2022-09-12T20:46:07.026Z,1.75
2022-09-12T20:48:34.865Z,1.58
2022-09-12T20:51:02.016Z,1.30
2022-09-12T20:53:32.940Z,4.22
2022-09-12T20:56:02.388Z,1.50
2022-09-12T20:58:29.282Z,1.50
2022-09-12T21:00:56.471Z,1.77
2022-09-12T21:03:23.772Z,2.75
2022-09-12T21:05:50.629Z,2.35
2022-09-12T21:08:17.660Z,1.73
2022-09-12T21:10:44.800Z,2.00
2022-09-12T21:13:12.831Z,2.65
2022-09-12T21:15:41.056Z,2.55
2022-09-12T21:18:08.460Z,2.83
2022-09-12T21:20:35.360Z,1.73
2022-09-12T21:23:02.031Z,1.65
2022-09-12T21:25:30.055Z,2.35
2022-09-12T21:27:56.932Z,2.45
2022-09-12T21:30:23.730Z,2.50
2022-09-12T21:32:50.638Z,1.85
2022-09-12T21:35:17.596Z,1.83
2022-09-12T21:37:44.460Z,2.60
2022-09-12T21:40:11.567Z,3.50
2022-09-12T21:42:38.497Z,2.75
2022-09-12T21:45:06.240Z,2.15
2022-09-12T21:47:33.144Z,2.15
2022-09-12T21:49:59.964Z,2.90
2022-09-12T21:52:27.525Z,2.22
2022-09-12T21:54:54.352Z,2.10
2022-09-12T21:57:21.363Z,2.25
2022-09-12T21:59:48.153Z,2.25
2022-09-12T22:02:16.020Z,2.05
2022-09-12T22:04:43.294Z,2.30
2022-09-12T22:07:10.660Z,3.67
2022-09-12T22:09:37.642Z,2.05
2022-09-12T22:12:04.561Z,3.88
2022-09-12T22:14:31.408Z,3.05
2022-09-12T22:16:58.984Z,2.88
2022-09-12T22:19:26.612Z,2.45
2022-09-12T22:22:12.097Z,4.03
2022-09-12T22:24:38.891Z,2.33
2022-09-12T22:27:06.580Z,2.20
2022-09-12T22:29:34.164Z,4.05
2022-09-12T22:32:01.264Z,2.30
2022-09-12T22:34:28.876Z,2.15
2022-09-12T22:36:56.046Z,3.15
2022-09-12T22:39:23.242Z,2.75
2022-09-12T22:41:50.048Z,2.88
2022-09-12T22:44:17.819Z,3.50
2022-09-12T22:46:45.026Z,3.30
2022-09-12T22:49:12.727Z,4.28
2022-09-12T22:51:39.654Z,3.22
2022-09-12T22:54:07.424Z,2.92
2022-09-12T22:56:34.136Z,3.25
2022-09-12T22:59:01.277Z,3.67
2022-09-12T23:01:27.983Z,3.38
2022-09-12T23:03:55.640Z,2.75
2022-09-12T23:06:22.310Z,3.45
2022-09-12T23:08:48.994Z,4.15
2022-09-12T23:11:19.067Z,3.55
2022-09-12T23:13:47.810Z,3.60
2022-09-12T23:16:19.005Z,3.75
2022-09-12T23:18:46.576Z,4.38
2022-09-12T23:21:15.142Z,3.08
2022-09-12T23:23:42.197Z,3.78
2022-09-12T23:26:20.832Z,3.70
2022-09-12T23:28:53.091Z,4.03
2022-09-12T23:31:21.162Z,3.47
2022-09-12T23:33:49.978Z,4.15
2022-09-12T23:36:16.993Z,6.93
2022-09-12T23:38:46.335Z,3.05
2022-09-12T23:41:15.307Z,3.30
2022-09-12T23:43:43.105Z,3.95
2022-09-12T23:46:09.917Z,4.63
2022-09-12T23:48:36.722Z,4.05
2022-09-12T23:51:03.691Z,4.50
2022-09-12T23:53:31.111Z,5.40
2022-09-12T23:55:58.535Z,5.22
2022-09-12T23:58:25.592Z,4.93
